IGO6815 LKPR-EDDB
Flight info
| Callsign | IGO6815 |
|---|---|
| Flight time | N/A |
| Altitude | 19000 |
| Route | VENOX4B/30 VENOX DCT DEKOV/N0385F200 Y621 ESLOR M748 OSKAN T203 ATGUP ATG06R |
| Aircraft | A321/M-SDE3FGHIRWY/LB1 |
Departure
| Time | 2026-05-07 19:08 |
|---|---|
| Airport | Václav Havel Airport Prague (LKPR) |
Arrival
| Time | N/A |
|---|---|
| Airport | Berlin Brandenburg Airport (EDDB) |
| Time | Latitude | Longitude | Altitude | Speed | Heading |
|---|---|---|---|---|---|
| 2026-05-07 19:02 | 50.09734 | 14.27496 | 1206 ft | 0 kts | 135° |
| 2026-05-07 19:02 | 50.09725 | 14.27509 | 1206 ft | 6 kts | 135° |
| 2026-05-07 19:03 | 50.09685 | 14.27570 | 1207 ft | 9 kts | 135° |
| 2026-05-07 19:03 | 50.09640 | 14.27641 | 1209 ft | 11 kts | 135° |
| 2026-05-07 19:03 | 50.09572 | 14.27744 | 1211 ft | 16 kts | 136° |
| 2026-05-07 19:03 | 50.09496 | 14.27860 | 1214 ft | 15 kts | 135° |
| 2026-05-07 19:04 | 50.09426 | 14.27967 | 1215 ft | 14 kts | 135° |
| 2026-05-07 19:04 | 50.09351 | 14.28083 | 1214 ft | 16 kts | 135° |
| 2026-05-07 19:04 | 50.09282 | 14.28190 | 1214 ft | 13 kts | 135° |
| 2026-05-07 19:04 | 50.09208 | 14.28281 | 1211 ft | 11 kts | 160° |
| 2026-05-07 19:05 | 50.09163 | 14.28277 | 1211 ft | 5 kts | 198° |
| 2026-05-07 19:05 | 50.09150 | 14.28266 | 1211 ft | 0 kts | 213° |
| 2026-05-07 19:05 | 50.09145 | 14.28262 | 1211 ft | 4 kts | 213° |
| 2026-05-07 19:06 | 50.09099 | 14.28209 | 1210 ft | 12 kts | 219° |
| 2026-05-07 19:06 | 50.09100 | 14.28054 | 1208 ft | 0 kts | 306° |
| 2026-05-07 19:07 | 50.09110 | 14.28033 | 1209 ft | 19 kts | 307° |
| 2026-05-07 19:07 | 50.09340 | 14.27558 | 1211 ft | 89 kts | 307° |
| 2026-05-07 19:07 | 50.09839 | 14.26525 | 1206 ft | 147 kts | 307° |
| 2026-05-07 19:08 | 50.10544 | 14.25062 | 1307 ft | 182 kts | 308° |
| 2026-05-07 19:08 | 50.11298 | 14.23480 | 2037 ft | 183 kts | 309° |
| 2026-05-07 19:08 | 50.12077 | 14.21904 | 2809 ft | 184 kts | 309° |
| 2026-05-07 19:08 | 50.12860 | 14.20309 | 3288 ft | 192 kts | 308° |
| 2026-05-07 19:09 | 50.13702 | 14.18560 | 3511 ft | 210 kts | 307° |
| 2026-05-07 19:09 | 50.14594 | 14.16698 | 3857 ft | 219 kts | 307° |
| 2026-05-07 19:09 | 50.15544 | 14.14721 | 3974 ft | 243 kts | 307° |
| 2026-05-07 19:09 | 50.16588 | 14.12552 | 4505 ft | 254 kts | 306° |
| 2026-05-07 19:10 | 50.17605 | 14.10431 | 5157 ft | 258 kts | 306° |
| 2026-05-07 19:10 | 50.18684 | 14.08173 | 5868 ft | 261 kts | 306° |
| 2026-05-07 19:10 | 50.19779 | 14.05883 | 6585 ft | 265 kts | 305° |
| 2026-05-07 19:10 | 50.20890 | 14.03562 | 7252 ft | 268 kts | 306° |
| 2026-05-07 19:11 | 50.22195 | 14.01460 | 7901 ft | 274 kts | 324° |
| 2026-05-07 19:11 | 50.23960 | 14.00284 | 8546 ft | 282 kts | 349° |
| 2026-05-07 19:11 | 50.25922 | 14.00426 | 9193 ft | 288 kts | 13° |
| 2026-05-07 19:11 | 50.27872 | 14.01264 | 9858 ft | 292 kts | 14° |
| 2026-05-07 19:12 | 50.29857 | 14.02135 | 10272 ft | 305 kts | 14° |
| 2026-05-07 19:12 | 50.31966 | 14.03061 | 10401 ft | 326 kts | 15° |
| 2026-05-07 19:12 | 50.34217 | 14.04053 | 10541 ft | 345 kts | 14° |
| 2026-05-07 19:12 | 50.36560 | 14.05087 | 10945 ft | 353 kts | 14° |
| 2026-05-07 19:13 | 50.38935 | 14.06130 | 11491 ft | 357 kts | 14° |
| 2026-05-07 19:13 | 50.41343 | 14.07183 | 12074 ft | 360 kts | 14° |
| 2026-05-07 19:13 | 50.43769 | 14.08241 | 12650 ft | 364 kts | 14° |
| 2026-05-07 19:13 | 50.46220 | 14.09308 | 13246 ft | 367 kts | 14° |
| 2026-05-07 19:14 | 50.48690 | 14.10386 | 13810 ft | 370 kts | 14° |
| 2026-05-07 19:14 | 50.51182 | 14.11482 | 14327 ft | 373 kts | 15° |
| 2026-05-07 19:14 | 50.53690 | 14.12591 | 14844 ft | 376 kts | 15° |
| 2026-05-07 19:14 | 50.56238 | 14.13573 | 15367 ft | 378 kts | 8° |
| 2026-05-07 19:15 | 50.58843 | 14.14195 | 15889 ft | 380 kts | 7° |
| 2026-05-07 19:15 | 50.61466 | 14.14817 | 16421 ft | 382 kts | 7° |
| 2026-05-07 19:15 | 50.64077 | 14.15279 | 16899 ft | 384 kts | 358° |
| 2026-05-07 19:15 | 50.66726 | 14.14781 | 17405 ft | 385 kts | 349° |
| 2026-05-07 19:16 | 50.69374 | 14.14045 | 17918 ft | 388 kts | 349° |
| 2026-05-07 19:16 | 50.72037 | 14.13297 | 18401 ft | 390 kts | 349° |
| 2026-05-07 19:16 | 50.74721 | 14.12545 | 18820 ft | 392 kts | 349° |
| 2026-05-07 19:16 | 50.77420 | 14.11788 | 19011 ft | 393 kts | 349° |
| 2026-05-07 19:17 | 50.80147 | 14.11021 | 19054 ft | 405 kts | 349° |
| 2026-05-07 19:17 | 50.82953 | 14.10234 | 19055 ft | 412 kts | 349° |
| 2026-05-07 19:17 | 50.85781 | 14.09444 | 19055 ft | 414 kts | 349° |
| 2026-05-07 19:17 | 50.88618 | 14.08653 | 19062 ft | 414 kts | 349° |
| 2026-05-07 19:18 | 50.91463 | 14.07856 | 19063 ft | 414 kts | 349° |
| 2026-05-07 19:18 | 50.94295 | 14.07057 | 19066 ft | 414 kts | 349° |
| 2026-05-07 19:18 | 50.97134 | 14.06255 | 19070 ft | 414 kts | 349° |
| 2026-05-07 19:18 | 50.99970 | 14.05457 | 19076 ft | 414 kts | 349° |
| 2026-05-07 19:19 | 51.02810 | 14.04655 | 19078 ft | 414 kts | 349° |
| 2026-05-07 19:19 | 51.05646 | 14.03853 | 19077 ft | 414 kts | 349° |
| 2026-05-07 19:19 | 51.08484 | 14.03047 | 19077 ft | 414 kts | 349° |
| 2026-05-07 19:19 | 51.11318 | 14.02236 | 19143 ft | 412 kts | 349° |
| 2026-05-07 19:20 | 51.14137 | 14.01430 | 19384 ft | 413 kts | 349° |
| 2026-05-07 19:20 | 51.16970 | 14.00622 | 19640 ft | 414 kts | 349° |
| 2026-05-07 19:20 | 51.19805 | 13.99816 | 19886 ft | 415 kts | 349° |
| 2026-05-07 19:20 | 51.22652 | 13.99008 | 20040 ft | 416 kts | 349° |
| 2026-05-07 19:21 | 51.25505 | 13.98197 | 20081 ft | 416 kts | 349° |
| 2026-05-07 19:21 | 51.28350 | 13.97387 | 20082 ft | 416 kts | 349° |
| 2026-05-07 19:21 | 51.31200 | 13.96572 | 20079 ft | 416 kts | 349° |
| 2026-05-07 19:21 | 51.34041 | 13.95760 | 20079 ft | 416 kts | 349° |
| 2026-05-07 19:22 | 51.36850 | 13.94955 | 20077 ft | 415 kts | 349° |
| 2026-05-07 19:22 | 51.39696 | 13.94136 | 20078 ft | 415 kts | 349° |
| 2026-05-07 19:22 | 51.42541 | 13.93314 | 20082 ft | 415 kts | 349° |
| 2026-05-07 19:22 | 51.45388 | 13.92492 | 20082 ft | 415 kts | 349° |
| 2026-05-07 19:23 | 51.48228 | 13.91673 | 20013 ft | 415 kts | 349° |
| 2026-05-07 19:23 | 51.51057 | 13.90860 | 19756 ft | 413 kts | 349° |
| 2026-05-07 19:23 | 51.53882 | 13.90045 | 19512 ft | 411 kts | 349° |
| 2026-05-07 19:23 | 51.56675 | 13.89234 | 19067 ft | 404 kts | 349° |
| 2026-05-07 19:24 | 51.59424 | 13.88437 | 18553 ft | 399 kts | 349° |
| 2026-05-07 19:24 | 51.62135 | 13.87650 | 18050 ft | 392 kts | 349° |
| 2026-05-07 19:24 | 51.64767 | 13.86883 | 17896 ft | 377 kts | 349° |
| 2026-05-07 19:24 | 51.66454 | 13.86391 | 17781 ft | 367 kts | 349° |